Time;durP1;ratioP1;P1;durP2;ratioP2;P2;SDS_P1;SDS_P2;PMS_P1;PMS_P2;Temp;Humidity;BMP_temperature;BMP_pressure;BME280_temperature;BME280_humidity;BME280_pressure;Samples;Min_cycle;Max_cycle;Signal;HPM_P1;HPM_P2
2022/08/21 00:01:13;;;;;;;3.10;1.50;;;15.60;85.20;;;;;;5036360;28;20017;-77
2022/08/21 00:03:40;;;;;;;4.30;1.90;;;15.70;84.30;;;;;;5018300;28;20026;-78
2022/08/21 00:06:06;;;;;;;3.78;1.88;;;15.70;83.50;;;;;;5036160;28;20060;-78
2022/08/21 00:08:32;;;;;;;3.05;1.50;;;15.60;83.30;;;;;;5035857;28;20033;-78
2022/08/21 00:10:58;;;;;;;3.08;1.73;;;15.60;83.60;;;;;;5035960;28;20029;-78
2022/08/21 00:13:23;;;;;;;2.90;1.58;;;15.50;83.90;;;;;;5035956;28;20026;-78
2022/08/21 00:15:49;;;;;;;9.30;1.60;;;15.50;83.70;;;;;;5035854;28;20074;-78
2022/08/21 00:18:16;;;;;;;4.95;1.73;;;15.50;83.50;;;;;;5035912;28;20113;-77
2022/08/21 00:20:43;;;;;;;6.03;1.80;;;15.50;83.60;;;;;;5035650;28;20427;-78
2022/08/21 00:23:09;;;;;;;4.15;1.55;;;15.50;84.40;;;;;;5017880;28;20036;-77
2022/08/21 00:25:36;;;;;;;2.35;1.75;;;15.50;83.40;;;;;;5034468;28;20014;-77
2022/08/21 00:28:02;;;;;;;2.28;1.80;;;15.70;83.80;;;;;;5035599;28;20122;-77
2022/08/21 00:30:28;;;;;;;4.57;1.88;;;15.70;82.80;;;;;;5035529;28;20501;-77
2022/08/21 00:32:56;;;;;;;2.63;1.30;;;15.70;82.30;;;;;;5035553;28;20065;-77
2022/08/21 00:35:25;;;;;;;4.63;1.80;;;15.60;82.00;;;;;;5035520;28;20474;-77
2022/08/21 00:37:51;;;;;;;2.40;1.73;;;15.50;82.40;;;;;;5035402;28;20363;-77
2022/08/21 00:40:25;;;;;;;2.97;1.65;;;15.50;83.00;;;;;;5035537;28;20028;-78
2022/08/21 00:42:51;;;;;;;4.13;1.70;;;15.50;83.00;;;;;;5035403;28;20377;-77
2022/08/21 00:45:16;;;;;;;3.95;1.80;;;15.40;82.80;;;;;;5035469;28;20035;-78
2022/08/21 00:47:42;;;;;;;2.22;1.45;;;15.30;83.60;;;;;;5035109;28;20043;-77
2022/08/21 00:50:10;;;;;;;2.15;1.40;;;15.20;83.40;;;;;;5035002;28;20028;-78
2022/08/21 00:52:37;;;;;;;3.80;1.77;;;15.30;83.30;;;;;;5035144;28;20026;-77
2022/08/21 00:55:05;;;;;;;2.13;1.45;;;15.20;83.10;;;;;;5035117;28;20024;-77
2022/08/21 00:57:37;;;;;;;4.40;1.60;;;15.30;83.10;;;;;;5017104;28;20108;-79
2022/08/21 01:00:07;;;;;;;7.65;1.70;;;15.20;83.20;;;;;;5034877;28;20103;-78
2022/08/21 01:02:33;;;;;;;3.40;1.58;;;15.20;83.20;;;;;;5035085;28;20025;-74
2022/08/21 01:04:58;;;;;;;4.20;1.90;;;15.10;82.90;;;;;;5034956;28;20052;-75
2022/08/21 01:07:24;;;;;;;1.70;1.58;;;14.90;83.60;;;;;;5034803;28;20044;-74
2022/08/21 01:09:51;;;;;;;2.90;2.10;;;14.70;84.60;;;;;;5034923;28;20014;-75
2022/08/21 01:12:17;;;;;;;4.40;2.10;;;14.60;85.10;;;;;;5034842;28;20029;-75
2022/08/21 01:14:44;;;;;;;3.83;1.95;;;14.40;85.60;;;;;;5016951;28;20029;-77
2022/08/21 01:17:12;;;;;;;3.50;1.95;;;14.40;85.80;;;;;;5034360;28;20036;-77
2022/08/21 01:19:38;;;;;;;3.45;1.63;;;14.30;85.90;;;;;;5034490;28;20022;-77
2022/08/21 01:22:04;;;;;;;2.08;1.88;;;14.30;86.40;;;;;;5034327;28;20534;-75
2022/08/21 01:24:31;;;;;;;3.03;2.00;;;14.20;86.60;;;;;;5034660;28;20025;-75
2022/08/21 01:26:58;;;;;;;7.72;2.00;;;14.20;86.70;;;;;;5034631;28;20482;-76
2022/08/21 01:29:43;;;;;;;2.25;1.80;;;14.10;86.80;;;;;;5035341;28;20481;-74
2022/08/21 01:32:12;;;;;;;3.93;2.07;;;14.10;86.70;;;;;;5044529;28;20029;-79
2022/08/21 01:34:40;;;;;;;3.10;1.75;;;14.00;86.80;;;;;;5056800;28;20256;-83
2022/08/21 01:37:06;;;;;;;5.28;2.20;;;14.00;86.80;;;;;;5039476;28;20056;-81
2022/08/21 01:39:32;;;;;;;3.67;2.00;;;14.10;86.90;;;;;;5035976;28;20508;-82
2022/08/21 01:41:58;;;;;;;4.85;2.00;;;14.00;86.80;;;;;;5035130;28;20053;-82
2022/08/21 01:44:25;;;;;;;3.92;2.17;;;14.00;87.10;;;;;;5016763;28;20041;-80
2022/08/21 01:46:52;;;;;;;4.05;1.98;;;13.90;87.10;;;;;;5034849;28;20103;-82
2022/08/21 01:49:17;;;;;;;7.55;2.28;;;13.80;87.10;;;;;;5034680;28;20025;-83
2022/08/21 01:51:43;;;;;;;6.38;2.13;;;13.80;87.50;;;;;;5034428;28;20026;-82
2022/08/21 01:54:10;;;;;;;4.38;2.20;;;13.80;87.70;;;;;;5034558;28;20040;-83
2022/08/21 01:56:42;;;;;;;5.07;2.10;;;13.80;87.60;;;;;;5034487;28;20080;-83
2022/08/21 01:59:08;;;;;;;4.97;2.35;;;13.90;87.70;;;;;;5032640;28;20068;-81
2022/08/21 02:01:34;;;;;;;6.63;1.95;;;13.80;87.20;;;;;;5034165;28;20492;-77
2022/08/21 02:04:00;;;;;;;4.85;2.22;;;13.80;87.30;;;;;;5034312;28;20021;-82
2022/08/21 02:06:26;;;;;;;3.25;2.13;;;13.80;87.50;;;;;;5034188;28;20120;-82
2022/08/21 02:08:51;;;;;;;3.08;1.85;;;13.80;87.50;;;;;;5034151;28;20382;-83
2022/08/21 02:11:18;;;;;;;4.90;2.05;;;13.80;87.60;;;;;;5033820;28;20041;-82
2022/08/21 02:13:43;;;;;;;5.57;2.50;;;13.70;87.40;;;;;;5033986;28;20021;-82
2022/08/21 02:16:09;;;;;;;5.38;2.10;;;13.80;87.20;;;;;;5034072;28;20028;-82
2022/08/21 02:18:35;;;;;;;3.72;1.98;;;13.70;87.30;;;;;;5033851;28;20029;-81
2022/08/21 02:21:01;;;;;;;7.47;2.35;;;13.70;87.10;;;;;;5034066;28;20108;-82
2022/08/21 02:23:27;;;;;;;4.97;2.17;;;13.70;87.10;;;;;;5034203;28;20021;-82
2022/08/21 02:25:52;;;;;;;5.35;2.30;;;13.60;87.10;;;;;;5033862;28;20545;-81
2022/08/21 02:28:18;;;;;;;5.50;2.03;;;13.60;87.90;;;;;;5033434;28;20033;-82
2022/08/21 02:30:47;;;;;;;3.45;1.88;;;13.60;86.90;;;;;;5033667;28;20045;-81
2022/08/21 02:33:14;;;;;;;6.20;2.45;;;13.60;87.00;;;;;;5033712;28;20097;-75
2022/08/21 02:35:42;;;;;;;4.57;2.22;;;13.70;87.20;;;;;;5016002;28;20029;-74
2022/08/21 02:38:11;;;;;;;4.38;2.13;;;13.60;87.30;;;;;;5033213;28;20105;-75
2022/08/21 02:40:40;;;;;;;6.25;2.28;;;13.60;87.10;;;;;;5033427;28;20067;-75
2022/08/21 02:43:07;;;;;;;5.80;2.53;;;13.60;87.10;;;;;;5033381;28;20079;-75
2022/08/21 02:45:33;;;;;;;4.68;2.28;;;13.50;87.10;;;;;;5033148;28;20363;-75
2022/08/21 02:48:02;;;;;;;4.90;2.22;;;13.50;87.10;;;;;;5033159;28;20068;-77
2022/08/21 02:50:36;;;;;;;3.92;2.15;;;13.50;87.30;;;;;;5032780;28;20535;-77
2022/08/21 02:53:02;;;;;;;4.68;2.50;;;13.60;86.90;;;;;;5033171;28;20488;-76
2022/08/21 02:55:30;;;;;;;5.13;2.70;;;13.60;86.90;;;;;;5033321;28;20029;-82
2022/08/21 02:57:57;;;;;;;3.95;2.15;;;13.50;86.90;;;;;;5032830;28;20026;-82
2022/08/21 03:00:25;;;;;;;6.47;2.10;;;13.50;86.90;;;;;;5032895;28;20051;-80
2022/08/21 03:02:51;;;;;;;5.05;2.50;;;13.50;86.90;;;;;;5032850;28;20060;-81
2022/08/21 03:05:17;;;;;;;6.05;2.33;;;13.40;86.90;;;;;;5033136;28;20083;-82
2022/08/21 03:07:44;;;;;;;7.93;2.40;;;13.40;87.90;;;;;;5032894;28;20034;-81
2022/08/21 03:10:10;;;;;;;3.85;2.20;;;13.30;87.60;;;;;;5015580;28;20021;-80
2022/08/21 03:12:36;;;;;;;7.10;3.58;;;13.30;87.70;;;;;;5033071;28;20032;-82
2022/08/21 03:15:04;;;;;;;6.47;2.67;;;13.30;88.40;;;;;;5033115;28;20025;-82
2022/08/21 03:17:30;;;;;;;5.10;2.50;;;13.30;87.70;;;;;;5033168;28;20045;-83
2022/08/21 03:19:56;;;;;;;4.72;2.40;;;13.30;87.60;;;;;;5033007;28;20056;-83
2022/08/21 03:22:22;;;;;;;4.00;2.28;;;13.30;87.70;;;;;;5032863;28;20071;-82
2022/08/21 03:24:48;;;;;;;8.35;2.58;;;13.20;87.40;;;;;;5032837;28;20025;-83
2022/08/21 03:27:13;;;;;;;9.02;2.90;;;13.20;87.60;;;;;;5014997;28;20033;-82
2022/08/21 03:29:39;;;;;;;5.43;2.53;;;13.20;87.70;;;;;;5033127;28;20049;-83
2022/08/21 03:32:09;;;;;;;5.35;2.22;;;13.20;87.70;;;;;;5032889;28;20022;-80
2022/08/21 03:34:35;;;;;;;6.78;2.75;;;13.20;87.60;;;;;;5032686;28;20053;-80
2022/08/21 03:37:01;;;;;;;5.13;2.70;;;13.20;87.40;;;;;;5032593;28;20029;-78
2022/08/21 03:39:27;;;;;;;7.45;2.95;;;13.20;87.40;;;;;;5032698;28;20112;-82
2022/08/21 03:41:53;;;;;;;6.22;2.72;;;13.10;87.60;;;;;;5032763;28;20437;-82
2022/08/21 03:44:19;;;;;;;5.15;2.67;;;13.10;87.90;;;;;;5032687;28;20462;-83
2022/08/21 03:46:45;;;;;;;3.65;2.88;;;13.00;87.90;;;;;;5032477;28;20044;-80
2022/08/21 03:49:10;;;;;;;8.75;2.67;;;13.10;88.10;;;;;;5032692;28;20102;-82
2022/08/21 03:51:36;;;;;;;7.10;2.95;;;13.10;87.60;;;;;;5032520;28;20065;-83
2022/08/21 03:54:02;;;;;;;5.25;2.35;;;13.10;87.60;;;;;;5032759;28;20534;-80
2022/08/21 03:56:27;;;;;;;5.03;2.58;;;13.20;87.40;;;;;;5033033;28;20104;-82
2022/08/21 03:58:53;;;;;;;7.57;3.03;;;13.10;88.30;;;;;;5014574;28;20046;-74
2022/08/21 04:01:18;;;;;;;4.75;2.67;;;13.10;87.70;;;;;;5035425;28;20026;-74
2022/08/21 04:03:44;;;;;;;5.20;2.83;;;13.10;87.60;;;;;;5036007;28;20469;-74
2022/08/21 04:06:10;;;;;;;6.35;2.33;;;13.10;87.40;;;;;;5036040;28;20458;-74
2022/08/21 04:08:35;;;;;;;6.32;2.75;;;13.10;87.30;;;;;;5035984;28;20437;-74
2022/08/21 04:11:01;;;;;;;8.13;2.60;;;13.00;87.30;;;;;;5035926;28;20068;-76
2022/08/21 04:13:27;;;;;;;6.68;3.10;;;13.10;87.60;;;;;;5035967;28;20032;-75
2022/08/21 04:15:54;;;;;;;5.93;2.70;;;13.00;87.30;;;;;;5035805;28;20021;-74
2022/08/21 04:18:20;;;;;;;5.65;2.38;;;13.00;87.40;;;;;;5035866;28;20022;-76
2022/08/21 04:20:49;;;;;;;8.18;2.42;;;13.00;87.30;;;;;;5035718;28;20110;-74
2022/08/21 04:23:15;;;;;;;7.30;2.70;;;13.00;87.30;;;;;;5035674;28;20462;-74
2022/08/21 04:25:40;;;;;;;8.90;2.78;;;13.00;87.20;;;;;;5017864;28;20033;-74
2022/08/21 04:28:06;;;;;;;8.30;2.75;;;13.00;87.40;;;;;;5035556;28;20025;-75
2022/08/21 04:30:32;;;;;;;8.27;2.45;;;12.90;87.60;;;;;;5035457;28;20101;-74
2022/08/21 04:32:58;;;;;;;6.55;3.05;;;12.90;87.50;;;;;;5017807;28;20025;-74
2022/08/21 04:35:26;;;;;;;10.73;2.75;;;12.90;87.60;;;;;;5035385;28;20037;-74
2022/08/21 04:37:51;;;;;;;9.35;2.75;;;12.90;87.50;;;;;;5035479;28;20425;-74
2022/08/21 04:40:18;;;;;;;9.75;3.20;;;13.00;87.30;;;;;;5035342;28;20029;-75
2022/08/21 04:42:54;;;;;;;5.65;2.65;;;12.90;87.10;;;;;;5035307;28;20029;-74
2022/08/21 04:45:26;;;;;;;5.68;2.63;;;13.00;87.10;;;;;;5035436;28;20035;-77
2022/08/21 04:47:54;;;;;;;7.78;3.22;;;12.90;87.10;;;;;;5035497;28;20033;-74
2022/08/21 04:50:24;;;;;;;4.38;2.80;;;13.00;86.90;;;;;;5035510;28;20083;-74
2022/08/21 04:52:50;;;;;;;4.97;2.92;;;12.90;86.90;;;;;;5035432;28;20041;-74
2022/08/21 04:55:18;;;;;;;6.38;3.08;;;13.00;87.00;;;;;;5035315;28;20033;-74
2022/08/21 04:57:44;;;;;;;7.70;3.30;;;12.90;87.00;;;;;;5035442;28;20045;-74
2022/08/21 05:00:11;;;;;;;8.38;2.80;;;13.00;87.00;;;;;;5035155;28;20540;-74
2022/08/21 05:02:37;;;;;;;6.20;2.53;;;12.90;87.10;;;;;;5035117;28;20373;-74
2022/08/21 05:05:03;;;;;;;9.27;3.20;;;12.90;86.90;;;;;;5035132;28;20063;-76
2022/08/21 05:07:30;;;;;;;14.13;3.88;;;12.90;86.70;;;;;;5034978;28;20509;-76
2022/08/21 05:09:56;;;;;;;7.78;3.20;;;13.00;86.60;;;;;;5035047;28;20126;-75
2022/08/21 05:12:22;;;;;;;6.30;2.50;;;13.00;86.50;;;;;;5034633;28;20489;-75
2022/08/21 05:14:47;;;;;;;4.88;3.05;;;13.00;86.40;;;;;;5035025;28;20393;-74
2022/08/21 05:17:14;;;;;;;7.78;2.20;;;13.10;86.20;;;;;;5034249;28;20090;-74
2022/08/21 05:19:39;;;;;;;8.38;3.35;;;13.10;86.00;;;;;;5034770;28;20037;-75
2022/08/21 05:22:05;;;;;;;6.30;2.70;;;13.10;85.80;;;;;;5034873;28;20028;-73
2022/08/21 05:24:31;;;;;;;6.97;2.88;;;13.10;85.90;;;;;;5035079;28;20036;-74
2022/08/21 05:26:57;;;;;;;9.15;2.83;;;13.20;85.90;;;;;;5034775;28;20051;-75
2022/08/21 05:29:22;;;;;;;7.65;3.05;;;13.20;85.50;;;;;;5039607;28;20091;-74
2022/08/21 05:31:48;;;;;;;5.00;2.95;;;13.30;85.50;;;;;;5035392;28;20029;-74
2022/08/21 05:34:18;;;;;;;8.30;3.50;;;13.40;85.10;;;;;;5034753;28;20477;-78
2022/08/21 05:36:44;;;;;;;7.25;3.10;;;13.40;84.90;;;;;;5016882;28;20428;-76
2022/08/21 05:39:09;;;;;;;12.30;3.30;;;13.50;84.90;;;;;;5034579;28;20022;-73
2022/08/21 05:41:35;;;;;;;7.85;3.58;;;13.50;85.00;;;;;;5034605;28;20109;-74
2022/08/21 05:44:00;;;;;;;8.52;3.05;;;13.50;84.50;;;;;;5016884;28;20087;-82
2022/08/21 05:46:26;;;;;;;9.43;2.85;;;13.60;84.40;;;;;;5034245;28;20084;-75
2022/08/21 05:48:52;;;;;;;5.10;2.78;;;13.80;84.10;;;;;;5034410;28;20095;-74
2022/08/21 05:51:17;;;;;;;10.05;3.15;;;13.80;83.70;;;;;;5035289;28;20029;-73
2022/08/21 05:53:43;;;;;;;6.60;2.90;;;13.90;83.20;;;;;;5016513;28;20040;-74
2022/08/21 05:56:10;;;;;;;7.43;3.20;;;13.90;82.70;;;;;;5034190;28;20033;-74
2022/08/21 05:58:35;;;;;;;6.90;2.80;;;14.00;82.60;;;;;;5033909;28;20052;-74
2022/08/21 06:01:03;;;;;;;6.47;2.80;;;14.10;82.40;;;;;;5034509;28;20033;-73
2022/08/21 06:03:35;;;;;;;6.97;2.63;;;14.10;82.10;;;;;;5034188;28;20021;-75
2022/08/21 06:06:01;;;;;;;8.43;3.20;;;14.20;82.10;;;;;;5016212;28;20034;-75
2022/08/21 06:08:27;;;;;;;6.10;3.00;;;14.30;81.80;;;;;;5034067;28;20037;-80
2022/08/21 06:10:54;;;;;;;8.40;3.08;;;14.40;81.80;;;;;;5033949;28;20385;-76
2022/08/21 06:13:21;;;;;;;7.30;3.05;;;14.50;82.40;;;;;;5033836;28;20473;-75
2022/08/21 06:15:47;;;;;;;6.30;2.90;;;14.70;81.30;;;;;;5033774;28;20377;-74
2022/08/21 06:18:13;;;;;;;7.05;2.83;;;14.70;80.80;;;;;;5033789;28;20029;-74
2022/08/21 06:20:39;;;;;;;9.07;3.35;;;14.90;80.70;;;;;;5033656;28;20053;-74
2022/08/21 06:23:05;;;;;;;7.55;2.45;;;15.00;80.10;;;;;;5032895;28;20112;-78
2022/08/21 06:25:30;;;;;;;7.25;3.17;;;15.10;79.80;;;;;;5033486;28;20018;-75
2022/08/21 06:28:05;;;;;;;9.68;3.20;;;15.30;79.60;;;;;;5033349;28;20520;-74
2022/08/21 06:30:32;;;;;;;8.60;3.53;;;15.30;79.20;;;;;;5033530;28;20036;-75
2022/08/21 06:32:57;;;;;;;8.30;2.80;;;15.40;79.10;;;;;;5033432;28;20433;-75
2022/08/21 06:35:24;;;;;;;9.05;2.90;;;15.60;78.80;;;;;;5033660;28;20057;-74
2022/08/21 06:37:50;;;;;;;5.68;2.38;;;15.70;78.50;;;;;;5036370;28;20022;-75
2022/08/21 06:40:16;;;;;;;7.15;3.20;;;15.90;78.10;;;;;;5033219;28;20022;-74
2022/08/21 06:42:42;;;;;;;6.95;2.55;;;16.10;77.40;;;;;;5033327;28;20112;-75
2022/08/21 06:45:08;;;;;;;9.23;2.83;;;16.20;77.20;;;;;;5033315;28;20104;-78
2022/08/21 06:47:33;;;;;;;7.90;3.35;;;16.40;76.90;;;;;;5033402;28;20439;-76
2022/08/21 06:49:59;;;;;;;8.75;2.55;;;16.50;76.70;;;;;;5033468;28;20033;-75
2022/08/21 06:52:24;;;;;;;5.63;2.65;;;16.70;76.50;;;;;;5033051;28;20062;-76
2022/08/21 06:54:50;;;;;;;5.15;2.30;;;16.80;75.70;;;;;;5033258;28;20389;-75
2022/08/21 06:57:15;;;;;;;7.03;2.80;;;16.90;75.20;;;;;;5033025;28;20485;-75
2022/08/21 06:59:41;;;;;;;9.48;3.13;;;17.00;74.60;;;;;;5032792;28;20045;-74
2022/08/21 07:02:07;;;;;;;4.88;2.58;;;17.10;74.10;;;;;;5032993;28;20033;-80
2022/08/21 07:04:33;;;;;;;6.07;2.42;;;17.10;73.70;;;;;;5033041;28;20025;-75
2022/08/21 07:06:59;;;;;;;7.57;3.08;;;17.20;73.30;;;;;;5033249;28;20034;-77
2022/08/21 07:09:24;;;;;;;6.85;2.58;;;17.30;72.10;;;;;;5033749;28;20044;-81
2022/08/21 07:11:53;;;;;;;4.28;2.17;;;17.40;71.70;;;;;;5033080;28;20363;-76
2022/08/21 07:14:19;;;;;;;8.05;2.70;;;17.60;72.70;;;;;;5033028;28;20476;-77
2022/08/21 07:16:44;;;;;;;6.55;2.65;;;17.80;72.30;;;;;;5033572;28;20042;-75
2022/08/21 07:19:10;;;;;;;6.07;2.60;;;17.90;70.30;;;;;;5032944;28;20013;-76
2022/08/21 07:21:36;;;;;;;6.10;2.70;;;18.00;69.20;;;;;;5032887;28;20113;-75
2022/08/21 07:24:02;;;;;;;4.40;2.40;;;18.10;69.50;;;;;;5032867;28;20100;-75
2022/08/21 07:26:28;;;;;;;8.48;3.00;;;18.30;69.60;;;;;;5032596;28;20550;-75
2022/08/21 07:28:53;;;;;;;10.43;2.60;;;18.40;69.30;;;;;;5015427;28;20033;-76
2022/08/21 07:31:22;;;;;;;3.45;2.10;;;18.60;68.90;;;;;;5014986;28;20021;-75
2022/08/21 07:33:48;;;;;;;5.32;2.63;;;18.70;68.60;;;;;;5032800;28;20029;-76
2022/08/21 07:36:14;;;;;;;10.95;3.22;;;18.90;68.30;;;;;;5035446;28;20397;-76
2022/08/21 07:38:40;;;;;;;10.40;3.10;;;19.10;66.90;;;;;;5018780;28;20466;-76
2022/08/21 07:41:16;;;;;;;7.38;2.72;;;19.10;65.40;;;;;;5036508;28;20021;-76
2022/08/21 07:43:42;;;;;;;8.80;2.97;;;19.30;64.10;;;;;;5036764;28;20034;-76
2022/08/21 07:46:08;;;;;;;4.55;2.00;;;19.50;64.70;;;;;;5036279;28;20048;-75
2022/08/21 07:48:33;;;;;;;9.93;2.80;;;19.70;64.10;;;;;;5036757;28;20036;-82
2022/08/21 07:51:04;;;;;;;15.57;2.83;;;19.90;64.00;;;;;;5036649;28;20021;-79
2022/08/21 07:53:30;;;;;;;7.47;2.60;;;20.10;58.80;;;;;;5036465;28;20120;-82
2022/08/21 07:55:58;;;;;;;5.88;2.63;;;20.10;60.30;;;;;;5036790;28;20129;-79
2022/08/21 07:58:24;;;;;;;6.10;3.10;;;20.30;60.80;;;;;;5018659;28;20037;-81
2022/08/21 08:00:50;;;;;;;10.18;3.10;;;20.50;59.90;;;;;;5018857;28;20470;-80
2022/08/21 08:03:16;;;;;;;7.30;2.15;;;20.60;60.00;;;;;;5018755;28;20033;-79
2022/08/21 08:05:41;;;;;;;8.25;2.50;;;20.70;58.70;;;;;;5036708;28;20037;-81
2022/08/21 08:08:07;;;;;;;8.70;3.50;;;20.90;59.10;;;;;;5036729;28;20095;-82
2022/08/21 08:10:33;;;;;;;7.03;2.70;;;21.00;58.30;;;;;;5036275;28;20055;-78
2022/08/21 08:12:59;;;;;;;11.43;2.92;;;21.10;57.30;;;;;;5036286;28;20032;-80
2022/08/21 08:15:26;;;;;;;7.13;2.25;;;21.00;56.70;;;;;;5036203;28;20047;-79
2022/08/21 08:17:54;;;;;;;5.63;2.30;;;21.10;57.40;;;;;;5018301;28;20370;-76
2022/08/21 08:20:21;;;;;;;6.00;2.47;;;21.20;57.00;;;;;;5035968;28;20048;-81
2022/08/21 08:22:47;;;;;;;8.15;3.13;;;21.30;55.80;;;;;;5035974;28;20021;-76
2022/08/21 08:25:13;;;;;;;6.80;2.33;;;21.40;55.50;;;;;;5036081;28;20564;-77
2022/08/21 08:27:40;;;;;;;8.68;3.20;;;21.50;54.70;;;;;;5035963;28;20482;-81
2022/08/21 08:30:08;;;;;;;7.03;2.92;;;21.60;53.60;;;;;;5018330;28;20022;-77
2022/08/21 08:32:33;;;;;;;7.32;2.80;;;21.60;52.40;;;;;;5035825;28;20482;-78
2022/08/21 08:34:59;;;;;;;7.57;2.72;;;21.40;50.70;;;;;;5036119;28;20041;-77
2022/08/21 08:37:25;;;;;;;9.93;2.88;;;21.30;52.00;;;;;;5035598;28;20036;-80
2022/08/21 08:39:50;;;;;;;5.68;2.58;;;21.40;52.80;;;;;;5008643;28;20037;-80
2022/08/21 08:42:25;;;;;;;5.88;2.72;;;21.50;52.90;;;;;;5008182;28;20049;-81
2022/08/21 08:45:00;;;;;;;4.25;2.17;;;21.70;52.20;;;;;;5023382;28;20026;-79
2022/08/21 08:47:28;;;;;;;11.75;3.30;;;21.80;51.10;;;;;;5015611;28;20088;-79
2022/08/21 08:50:05;;;;;;;10.75;2.95;;;21.90;50.10;;;;;;4999504;28;20022;-82
2022/08/21 08:52:40;;;;;;;6.28;2.60;;;21.90;49.50;;;;;;5027056;28;20048;-81
2022/08/21 08:55:26;;;;;;;5.80;2.80;;;22.00;50.00;;;;;;5038898;28;20026;-83
2022/08/21 08:57:54;;;;;;;7.72;2.92;;;22.10;49.40;;;;;;5040594;28;20025;-78
2022/08/21 09:00:22;;;;;;;5.30;2.50;;;22.20;48.90;;;;;;5051211;28;20050;-76
2022/08/21 09:02:53;;;;;;;8.52;2.35;;;22.20;49.80;;;;;;5035150;28;20046;-83
2022/08/21 09:05:30;;;;;;;6.00;2.40;;;22.30;49.70;;;;;;5039641;28;20025;-79
2022/08/21 09:08:32;;;;;;;5.38;2.30;;;22.40;47.90;;;;;;5017612;28;20486;-80
2022/08/21 09:11:12;;;;;;;10.13;3.03;;;22.40;45.60;;;;;;5017703;28;20022;-80
2022/08/21 09:14:11;;;;;;;12.73;2.72;;;22.40;45.00;;;;;;5031178;28;20051;-81
2022/08/21 09:16:50;;;;;;;3.58;2.13;;;22.40;44.20;;;;;;5030060;28;20033;-81
2022/08/21 09:19:25;;;;;;;7.25;2.47;;;22.50;45.00;;;;;;5036248;28;20030;-82
2022/08/21 09:22:23;;;;;;;7.53;2.67;;;22.70;45.90;;;;;;5041725;28;20022;-80
2022/08/21 09:25:14;;;;;;;4.25;2.20;;;22.90;44.40;;;;;;5027225;28;20033;-83
2022/08/21 09:27:40;;;;;;;7.80;2.28;;;23.00;43.40;;;;;;5051013;28;20030;-83
2022/08/21 09:30:08;;;;;;;8.10;2.50;;;23.10;41.90;;;;;;5039948;28;20088;-83
2022/08/21 09:32:35;;;;;;;5.15;2.50;;;23.00;39.60;;;;;;5022906;28;20022;-85
2022/08/21 09:35:07;;;;;;;6.18;2.38;;;23.00;39.80;;;;;;5037616;28;20477;-85
2022/08/21 09:37:44;;;;;;;4.95;2.00;;;23.00;41.20;;;;;;5021953;28;20060;-83
2022/08/21 09:40:32;;;;;;;4.10;2.00;;;23.10;40.70;;;;;;5020643;28;20032;-83
2022/08/21 09:43:02;;;;;;;5.20;2.13;;;23.30;41.60;;;;;;5019415;28;20068;-84
2022/08/21 09:45:30;;;;;;;3.83;1.90;;;23.50;42.50;;;;;;5038543;28;20100;-86
2022/08/21 09:47:56;;;;;;;3.83;1.80;;;23.70;41.20;;;;;;5036302;28;20037;-86
2022/08/21 09:50:25;;;;;;;3.80;1.65;;;23.90;39.30;;;;;;5036794;28;20071;-81
2022/08/21 09:52:59;;;;;;;4.45;1.67;;;24.10;38.10;;;;;;5035976;28;20028;-83
2022/08/21 09:58:17;;;;;;;3.45;1.60;;;24.20;36.90;;;;;;5015755;28;20418;-83
2022/08/21 10:00:43;;;;;;;3.25;1.67;;;24.30;37.00;;;;;;5016669;28;20107;-79
2022/08/21 10:03:18;;;;;;;3.08;1.70;;;24.30;37.60;;;;;;5016294;28;20022;-83
2022/08/21 10:05:57;;;;;;;4.20;1.85;;;24.10;36.00;;;;;;5020238;28;20033;-81
2022/08/21 10:08:25;;;;;;;5.07;1.67;;;24.00;35.60;;;;;;5015625;28;20132;-82
2022/08/21 10:11:13;;;;;;;4.63;1.75;;;24.00;35.60;;;;;;5015406;28;20024;-83
2022/08/21 10:14:05;;;;;;;4.63;1.67;;;24.00;36.20;;;;;;4998072;28;20029;-82
2022/08/21 10:16:49;;;;;;;4.70;1.80;;;24.20;37.00;;;;;;5012931;28;20034;-84
2022/08/21 10:19:36;;;;;;;4.25;1.85;;;24.40;36.90;;;;;;5015194;28;20059;-82
2022/08/21 10:22:22;;;;;;;4.13;1.65;;;24.50;35.80;;;;;;5015024;28;20097;-82
2022/08/21 10:24:55;;;;;;;2.58;1.52;;;24.60;37.40;;;;;;4997304;28;20125;-82
2022/08/21 10:28:06;;;;;;;3.15;1.63;;;24.90;36.60;;;;;;4996536;28;20475;-82
2022/08/21 10:31:04;;;;;;;2.50;1.50;;;25.30;37.60;;;;;;4982250;28;20042;-82
2022/08/21 10:33:57;;;;;;;6.18;3.40;;;25.70;35.00;;;;;;5014703;28;20022;-81
2022/08/21 10:36:50;;;;;;;6.35;1.55;;;26.00;36.00;;;;;;5022183;28;20021;-81
2022/08/21 10:39:22;;;;;;;5.65;1.52;;;26.10;33.30;;;;;;5009548;28;20037;-82
2022/08/21 10:42:06;;;;;;;6.57;1.73;;;26.00;33.10;;;;;;5014165;28;20030;-80
2022/08/21 10:45:11;;;;;;;4.20;1.92;;;25.90;32.20;;;;;;5013814;28;20028;-79
2022/08/21 10:47:44;;;;;;;2.80;1.60;;;26.00;32.20;;;;;;5027479;28;20041;-77
2022/08/21 10:50:30;;;;;;;3.50;1.75;;;25.80;31.90;;;;;;5025984;28;20358;-79
2022/08/21 10:53:29;;;;;;;2.95;1.60;;;25.70;33.30;;;;;;5033678;28;20545;-80
2022/08/21 10:56:12;;;;;;;3.05;1.73;;;25.80;31.90;;;;;;5019787;28;20025;-76
2022/08/21 10:58:45;;;;;;;4.05;1.77;;;25.80;30.90;;;;;;5033801;28;20392;-78
2022/08/21 11:01:24;;;;;;;4.35;1.77;;;26.00;31.70;;;;;;5033480;28;20083;-85
2022/08/21 11:04:01;;;;;;;5.38;1.73;;;26.00;30.00;;;;;;5015268;28;20025;-77
2022/08/21 11:06:30;;;;;;;5.60;1.73;;;26.20;30.90;;;;;;5015306;28;20080;-79
2022/08/21 11:09:13;;;;;;;1.98;1.27;;;26.30;31.40;;;;;;5032984;28;20051;-80
2022/08/21 11:11:51;;;;;;;3.20;1.60;;;26.30;29.30;;;;;;5032842;28;20022;-79
2022/08/21 11:14:29;;;;;;;3.15;1.75;;;26.30;29.50;;;;;;5033034;28;20033;-78
2022/08/21 11:17:08;;;;;;;4.45;1.60;;;26.30;30.60;;;;;;5033232;28;20053;-79
2022/08/21 11:19:50;;;;;;;3.90;1.60;;;26.20;29.60;;;;;;5032987;28;20026;-79
2022/08/21 11:22:43;;;;;;;3.72;1.63;;;26.20;30.30;;;;;;5034131;28;20083;-80
2022/08/21 11:25:54;;;;;;;4.55;1.50;;;26.20;31.20;;;;;;5039635;28;20397;-75
2022/08/21 11:28:28;;;;;;;2.20;1.17;;;26.40;31.20;;;;;;4961990;29;20035;-77
2022/08/21 11:31:17;;;;;;;2.80;1.38;;;26.40;28.70;;;;;;4955637;29;20023;-74
2022/08/21 11:33:58;;;;;;;4.55;1.40;;;26.00;29.00;;;;;;5016547;28;20041;-80
2022/08/21 11:36:37;;;;;;;2.50;1.40;;;26.10;29.90;;;;;;5037536;28;20026;-76
2022/08/21 11:39:15;;;;;;;3.17;1.70;;;26.20;30.90;;;;;;5033458;28;20504;-75
2022/08/21 11:41:49;;;;;;;5.40;1.67;;;26.20;29.10;;;;;;5032834;28;20492;-74
2022/08/21 11:44:41;;;;;;;2.58;1.40;;;26.40;29.20;;;;;;5032945;28;20036;-75
2022/08/21 11:47:45;;;;;;;2.90;1.50;;;26.70;29.50;;;;;;5032539;28;20208;-72
2022/08/21 11:50:11;;;;;;;8.02;5.50;;;27.00;30.00;;;;;;5033107;28;20053;-74
2022/08/21 11:52:47;;;;;;;3.30;1.90;;;27.50;30.90;;;;;;5033071;28;20068;-76
2022/08/21 11:55:19;;;;;;;3.58;1.50;;;27.90;28.90;;;;;;5033118;28;20027;-74
2022/08/21 11:57:53;;;;;;;4.45;1.85;;;27.90;25.80;;;;;;5033614;28;20107;-74
2022/08/21 12:00:28;;;;;;;2.83;1.30;;;28.00;26.60;;;;;;5033651;28;20128;-77
2022/08/21 12:03:08;;;;;;;3.28;1.33;;;27.90;28.30;;;;;;5033110;28;20540;-75
2022/08/21 12:05:41;;;;;;;3.80;1.60;;;28.20;28.60;;;;;;5032487;28;20029;-74
2022/08/21 12:08:26;;;;;;;3.03;1.35;;;27.70;28.50;;;;;;5032588;28;20389;-73
2022/08/21 12:11:08;;;;;;;4.57;1.60;;;27.60;29.50;;;;;;5032316;28;20041;-73
2022/08/21 12:13:55;;;;;;;4.70;1.80;;;27.30;29.70;;;;;;5032490;28;20477;-73
2022/08/21 12:16:39;;;;;;;2.78;1.75;;;27.00;30.20;;;;;;5014508;28;20033;-74
2022/08/21 12:19:24;;;;;;;2.08;1.20;;;26.80;30.30;;;;;;5032452;28;20096;-73
2022/08/21 12:22:10;;;;;;;2.70;1.58;;;27.00;29.90;;;;;;5032892;28;20058;-73
2022/08/21 12:24:47;;;;;;;3.35;1.58;;;27.40;29.20;;;;;;5035776;28;20091;-73
2022/08/21 12:27:29;;;;;;;3.50;1.42;;;27.30;29.00;;;;;;5035942;28;20041;-75
2022/08/21 12:30:03;;;;;;;2.28;1.42;;;27.50;28.70;;;;;;5018063;28;20563;-74
2022/08/21 12:32:44;;;;;;;3.08;1.15;;;27.50;27.50;;;;;;5035697;28;20051;-73
2022/08/21 12:35:21;;;;;;;3.15;1.35;;;27.60;27.10;;;;;;5035728;28;20065;-73
2022/08/21 12:38:24;;;;;;;4.78;1.50;;;27.90;27.30;;;;;;5035475;28;20096;-73
2022/08/21 12:41:17;;;;;;;3.15;1.60;;;28.10;27.40;;;;;;5035310;28;20496;-74
2022/08/21 12:43:54;;;;;;;5.05;1.42;;;27.90;25.90;;;;;;5027140;28;20110;-74
2022/08/21 12:46:36;;;;;;;3.00;1.20;;;27.70;26.10;;;;;;5034487;28;20034;-73
2022/08/21 12:49:12;;;;;;;2.92;1.60;;;27.80;26.90;;;;;;5035390;28;20096;-76
2022/08/21 12:51:55;;;;;;;3.88;1.60;;;27.80;26.30;;;;;;5035424;28;20041;-76
2022/08/21 12:54:28;;;;;;;3.38;1.48;;;27.80;26.50;;;;;;5035170;28;20100;-75
2022/08/21 12:57:02;;;;;;;4.80;1.85;;;27.80;26.20;;;;;;5035280;28;20048;-75
2022/08/21 12:59:28;;;;;;;6.22;1.95;;;27.90;25.60;;;;;;5034584;28;20076;-74
2022/08/21 13:01:55;;;;;;;2.83;1.33;;;28.00;27.60;;;;;;5035054;28;20021;-74
2022/08/21 13:04:41;;;;;;;4.00;1.63;;;28.10;26.10;;;;;;5035241;28;20031;-74
2022/08/21 13:07:14;;;;;;;2.08;1.70;;;28.10;25.80;;;;;;5034839;28;20052;-72